Time;durP1;ratioP1;P1;durP2;ratioP2;P2;SDS_P1;SDS_P2;PMS_P1;PMS_P2;Temp;Humidity;BMP_temperature;BMP_pressure;BME280_temperature;BME280_humidity;BME280_pressure;Samples;Min_cycle;Max_cycle;Signal;HPM_P1;HPM_P2
2023/10/16 00:01:38;;;;;;;;;2.60;2.60;;;;;6.28;75.97;100605.00;5094836;28;8818;-58
2023/10/16 00:04:06;;;;;;;;;1.00;1.00;;;;;6.29;76.59;100606.75;5094524;28;8818;-55
2023/10/16 00:06:34;;;;;;;;;1.00;1.00;;;;;6.29;76.15;100601.47;5094657;28;8857;-56
2023/10/16 00:09:10;;;;;;;;;3.60;3.40;;;;;6.27;76.68;100598.00;5102994;28;9548;-56
2023/10/16 00:14:35;;;;;;;;;3.00;3.00;;;;;6.26;75.92;100594.53;5094315;28;8851;-58
2023/10/16 00:17:08;;;;;;;;;1.80;1.00;;;;;6.25;76.66;100597.25;5100708;28;9465;-57
2023/10/16 00:19:37;;;;;;;;;1.80;1.80;;;;;6.23;76.61;100605.25;5110746;28;8822;-56
2023/10/16 00:22:13;;;;;;;;;1.80;1.80;;;;;6.24;76.65;100603.47;5097678;28;8826;-56
2023/10/16 00:24:45;;;;;;;;;1.00;1.00;;;;;6.23;76.55;100599.97;5094503;28;8875;-58
2023/10/16 00:27:14;;;;;;;;;3.00;1.80;;;;;6.24;76.39;100593.78;5095018;28;8860;-57
2023/10/16 00:29:42;;;;;;;;;1.00;1.00;;;;;6.24;76.10;100595.53;5095006;28;8849;-58
2023/10/16 00:32:11;;;;;;;;;3.00;3.00;;;;;6.23;76.46;100599.97;5094668;28;8826;-57
2023/10/16 00:34:39;;;;;;;;;6.00;4.00;;;;;6.24;76.14;100590.25;5094763;28;8833;-57
2023/10/16 00:37:07;;;;;;;;;3.40;3.40;;;;;6.23;76.38;100592.03;5094869;28;8840;-55
2023/10/16 00:39:36;;;;;;;;;3.00;3.00;;;;;6.23;76.68;100591.19;5094320;28;8826;-58
2023/10/16 00:42:08;;;;;;;;;1.00;1.00;;;;;6.21;76.24;100588.63;5094216;28;8848;-58
2023/10/16 00:44:36;;;;;;;;;3.40;2.60;;;;;6.23;76.69;100593.84;5094159;28;8853;-57
2023/10/16 00:47:05;;;;;;;;;1.00;1.00;;;;;6.21;76.45;100587.78;5095200;28;8834;-58
2023/10/16 00:49:34;;;;;;;;;1.00;1.00;;;;;6.21;76.36;100590.44;5098008;28;8818;-58
2023/10/16 00:52:03;;;;;;;;;3.00;2.60;;;;;6.17;76.43;100589.72;5098129;28;8834;-56
2023/10/16 00:54:31;;;;;;;;;2.60;2.60;;;;;6.14;76.33;100596.97;5098202;28;8840;-57
2023/10/16 00:57:00;;;;;;;;;3.60;2.80;;;;;6.14;76.59;100596.97;5097877;28;8826;-57
2023/10/16 00:59:27;;;;;;;;;2.60;2.60;;;;;6.12;76.45;100588.22;5098174;28;8826;-58
2023/10/16 01:02:07;;;;;;;;;1.00;1.00;;;;;6.12;76.93;100589.09;5097911;28;8849;-57
2023/10/16 01:04:35;;;;;;;;;1.80;1.80;;;;;6.13;76.57;100582.00;5097894;28;8899;-58
2023/10/16 01:07:05;;;;;;;;;1.00;1.00;;;;;6.12;76.46;100589.09;5098171;28;8868;-56
2023/10/16 01:09:35;;;;;;;;;1.40;1.40;;;;;6.12;76.71;100582.94;5098118;28;9495;-58
2023/10/16 01:12:07;;;;;;;;;3.40;3.40;;;;;6.11;76.61;100586.53;5098108;28;8840;-58
2023/10/16 01:14:35;;;;;;;;;3.60;3.60;;;;;6.10;76.61;100577.75;5098381;28;8827;-55
2023/10/16 01:17:03;;;;;;;;;4.00;3.00;;;;;6.09;76.97;100583.09;5098521;28;8963;-57
2023/10/16 01:19:31;;;;;;;;;3.00;2.20;;;;;6.08;76.91;100582.25;5101560;28;8820;-56
2023/10/16 01:22:00;;;;;;;;;1.40;1.00;;;;;6.08;76.90;100570.81;5098544;28;9487;-56
2023/10/16 01:24:27;;;;;;;;;3.00;2.20;;;;;6.07;76.98;100574.41;5106132;28;8828;-56
2023/10/16 01:27:06;;;;;;;;;1.00;1.00;;;;;6.06;76.31;100575.34;5100904;28;8833;-55
2023/10/16 01:29:34;;;;;;;;;1.20;1.20;;;;;6.06;76.93;100580.63;5097728;28;8846;-56
2023/10/16 01:32:02;;;;;;;;;1.80;1.80;;;;;6.04;76.96;100574.53;5097946;28;8814;-56
2023/10/16 01:34:32;;;;;;;;;1.00;1.00;;;;;6.02;77.17;100576.41;5097400;28;8814;-57
2023/10/16 01:37:08;;;;;;;;;3.20;3.20;;;;;6.02;76.66;100576.41;5097586;28;8825;-57
2023/10/16 01:39:48;;;;;;;;;1.00;1.00;;;;;6.01;76.58;100575.56;5097876;28;8826;-57
2023/10/16 01:42:15;;;;;;;;;1.40;1.00;;;;;6.02;77.30;100573.78;5096968;28;8875;-57
2023/10/16 01:44:44;;;;;;;;;1.80;1.80;;;;;6.00;77.04;100570.38;5097458;28;8845;-58
2023/10/16 01:47:15;;;;;;;;;1.80;1.00;;;;;5.96;76.73;100568.78;5097316;28;8822;-55
2023/10/16 01:49:43;;;;;;;;;1.00;1.00;;;;;5.93;77.25;100569.81;5097147;28;8853;-58
2023/10/16 01:52:11;;;;;;;;;2.60;2.60;;;;;5.91;77.58;100569.03;5097152;28;8818;-57
2023/10/16 01:54:40;;;;;;;;;3.00;3.00;;;;;5.88;76.95;100569.22;5097308;28;8844;-55
2023/10/16 01:57:10;;;;;;;;;4.00;4.00;;;;;5.87;76.97;100562.22;5097222;28;8806;-56
2023/10/16 01:59:39;;;;;;;;;1.40;1.40;;;;;5.87;77.53;100561.34;5097176;28;9583;-58
2023/10/16 02:02:09;;;;;;;;;3.40;2.20;;;;;5.88;77.38;100568.34;5097019;28;8837;-58
2023/10/16 02:04:37;;;;;;;;;2.60;2.60;;;;;5.87;77.49;100566.63;5097473;28;9522;-56
2023/10/16 02:07:06;;;;;;;;;2.60;2.60;;;;;5.86;76.91;100562.28;5097193;28;8861;-55
2023/10/16 02:09:36;;;;;;;;;1.00;1.00;;;;;5.84;77.12;100564.16;5096867;28;8856;-58
2023/10/16 02:12:05;;;;;;;;;1.40;1.40;;;;;5.81;77.10;100561.66;5096818;28;8826;-58
2023/10/16 02:14:37;;;;;;;;;3.60;3.60;;;;;5.80;77.08;100557.31;5096672;28;8866;-56
2023/10/16 02:17:04;;;;;;;;;1.40;1.40;;;;;5.78;77.13;100559.97;5097323;28;8814;-58
2023/10/16 02:19:32;;;;;;;;;3.20;3.20;;;;;5.77;76.91;100552.16;5096363;28;8829;-57
2023/10/16 02:22:00;;;;;;;;;1.40;1.00;;;;;5.76;77.16;100563.66;5096997;28;8826;-55
2023/10/16 02:24:27;;;;;;;;;6.00;4.00;;;;;5.73;77.49;100547.94;5102860;28;8819;-57
2023/10/16 02:27:02;;;;;;;;;2.60;2.60;;;;;5.72;76.98;100552.38;5107169;28;8826;-55
2023/10/16 02:29:31;;;;;;;;;0.00;0.00;;;;;5.71;77.19;100552.44;5096792;28;8849;-56
2023/10/16 02:32:03;;;;;;;;;6.40;4.20;;;;;5.71;77.69;100549.81;5107863;28;8804;-55
2023/10/16 02:34:33;;;;;;;;;2.20;2.20;;;;;5.71;77.00;100549.81;5100319;28;8903;-57
2023/10/16 02:37:01;;;;;;;;;2.40;2.20;;;;;5.71;77.11;100549.81;5116232;28;8861;-58
2023/10/16 02:39:36;;;;;;;;;2.60;2.20;;;;;5.70;77.40;100548.94;5109111;28;8845;-57
2023/10/16 02:42:08;;;;;;;;;0.40;0.40;;;;;5.68;77.33;100540.25;5099285;28;8800;-55
2023/10/16 02:44:38;;;;;;;;;3.40;3.00;;;;;5.66;77.10;100551.81;5112546;28;8899;-57
2023/10/16 02:47:07;;;;;;;;;2.20;2.20;;;;;5.61;77.48;100545.94;5104653;28;8840;-57
2023/10/16 02:49:35;;;;;;;;;3.00;2.60;;;;;5.57;77.55;100539.06;5096024;28;8858;-56
2023/10/16 02:52:04;;;;;;;;;1.80;1.00;;;;;5.54;77.46;100547.16;5095703;28;8826;-57
2023/10/16 02:54:32;;;;;;;;;1.40;1.00;;;;;5.54;77.67;100547.16;5095877;28;8879;-55
2023/10/16 02:57:00;;;;;;;;;3.60;3.00;;;;;5.52;77.74;100546.34;5096529;28;8863;-57
2023/10/16 02:59:29;;;;;;;;;3.00;3.00;;;;;5.54;77.80;100549.81;5096042;28;8837;-54
2023/10/16 03:01:57;;;;;;;;;4.00;3.80;;;;;5.54;77.88;100552.44;5095779;28;8902;-56
2023/10/16 03:04:29;;;;;;;;;3.00;3.00;;;;;5.54;77.34;100552.44;5096012;28;8822;-58
2023/10/16 03:06:56;;;;;;;;;3.20;3.20;;;;;5.54;77.78;100558.56;5095827;28;8830;-56
2023/10/16 03:09:28;;;;;;;;;1.40;1.00;;;;;5.57;77.91;100560.19;5095657;28;8845;-57
2023/10/16 03:12:04;;;;;;;;;1.00;1.00;;;;;5.58;77.62;100548.69;5095885;28;8856;-57
2023/10/16 03:14:44;;;;;;;;;3.00;3.00;;;;;5.59;77.15;100564.47;5096074;28;9612;-56
2023/10/16 03:17:22;;;;;;;;;3.40;3.00;;;;;5.62;77.54;100571.41;5096014;28;9546;-57
2023/10/16 03:19:49;;;;;;;;;3.80;3.00;;;;;5.62;77.15;100568.75;5095643;28;8864;-55
2023/10/16 03:22:17;;;;;;;;;1.00;1.00;;;;;5.62;77.24;100574.03;5095210;28;8826;-58
2023/10/16 03:24:45;;;;;;;;;2.80;2.60;;;;;5.61;77.42;100573.19;5096070;28;9538;-58
2023/10/16 03:27:27;;;;;;;;;3.20;1.40;;;;;5.60;77.12;100567.97;5095202;28;8854;-57
2023/10/16 03:29:55;;;;;;;;;3.00;3.00;;;;;5.60;77.77;100563.53;5095204;28;8826;-55
2023/10/16 03:32:24;;;;;;;;;3.00;3.00;;;;;5.58;77.68;100559.25;5095295;28;9569;-57
2023/10/16 03:34:52;;;;;;;;;3.40;3.40;;;;;5.57;77.23;100561.06;5094992;28;8957;-57
2023/10/16 03:37:19;;;;;;;;;3.60;2.20;;;;;5.56;77.91;100561.13;5094656;28;8826;-60
2023/10/16 03:39:55;;;;;;;;;1.80;1.80;;;;;5.53;77.18;100561.31;5095089;28;8896;-59
2023/10/16 03:42:23;;;;;;;;;1.40;1.40;;;;;5.51;77.31;100564.00;5095175;28;8829;-60
2023/10/16 03:44:51;;;;;;;;;2.60;2.60;;;;;5.51;77.36;100565.78;5100754;28;8824;-57
2023/10/16 03:47:19;;;;;;;;;1.00;1.00;;;;;5.53;77.43;100571.88;5115366;28;8832;-60
2023/10/16 03:49:47;;;;;;;;;3.00;3.00;;;;;5.55;77.67;100562.06;5110428;28;8804;-60
2023/10/16 03:52:14;;;;;;;;;2.60;2.60;;;;;5.56;77.63;100563.78;5096855;28;8825;-60
2023/10/16 03:54:44;;;;;;;;;1.80;1.80;;;;;5.55;77.93;100559.44;5094918;28;8838;-59
2023/10/16 03:57:13;;;;;;;;;3.00;3.00;;;;;5.54;78.17;100558.56;5094192;28;8810;-57
2023/10/16 03:59:44;;;;;;;;;3.00;3.00;;;;;5.56;77.37;100561.97;5094618;28;8842;-57
2023/10/16 04:02:19;;;;;;;;;1.80;1.80;;;;;5.55;77.39;100551.50;5094831;28;9626;-57
2023/10/16 04:04:48;;;;;;;;;1.00;1.00;;;;;5.56;77.71;100550.56;5094395;28;8872;-59
2023/10/16 04:07:16;;;;;;;;;3.20;3.20;;;;;5.55;78.09;100549.69;5094351;28;8830;-59
2023/10/16 04:09:49;;;;;;;;;3.80;3.80;;;;;5.57;77.30;100554.91;5094639;28;8842;-59
2023/10/16 04:12:21;;;;;;;;;1.00;1.00;;;;;5.58;78.07;100553.97;5094466;28;8826;-59
2023/10/16 04:14:55;;;;;;;;;2.60;1.40;;;;;5.58;77.27;100548.69;5094441;28;8865;-59
2023/10/16 04:17:24;;;;;;;;;2.60;1.40;;;;;5.59;77.25;100553.03;5094086;28;8944;-59
2023/10/16 04:19:59;;;;;;;;;1.00;1.00;;;;;5.59;77.44;100551.28;5093856;28;8825;-60
2023/10/16 04:22:40;;;;;;;;;3.40;3.40;;;;;5.59;76.87;100545.13;5094837;28;8818;-60
2023/10/16 04:25:17;;;;;;;;;3.80;3.00;;;;;5.59;77.18;100547.75;5097906;28;8919;-59
2023/10/16 04:27:44;;;;;;;;;1.00;1.00;;;;;5.56;77.83;100537.38;5097759;28;8842;-60
2023/10/16 04:33:13;;;;;;;;;1.00;0.40;;;;;5.50;77.83;100542.94;5097710;28;8919;-59
2023/10/16 04:36:52;;;;;;;;;1.00;1.00;;;;;5.44;77.32;100537.97;5097490;28;8964;-59
2023/10/16 04:38:55;;;;;;;;;1.40;1.40;;;;;5.35;78.12;100541.06;5096912;28;8911;-58
2023/10/16 04:47:01;;;;;;;;;4.00;4.00;;;;;5.17;78.01;100545.44;5096401;28;8834;-60
2023/10/16 04:49:28;;;;;;;;;2.20;1.00;;;;;5.14;77.95;100542.09;5096741;28;8841;-59
2023/10/16 04:52:01;;;;;;;;;2.40;2.20;;;;;5.12;78.60;100539.53;5097368;28;8842;-56
2023/10/16 04:54:57;;;;;;;;;1.80;1.00;;;;;5.11;78.46;100542.25;5096745;28;8830;-58
2023/10/16 05:00:28;;;;;;;;;2.60;2.60;;;;;5.05;78.42;100537.25;5097322;28;8834;-56
2023/10/16 05:03:21;;;;;;;;;2.60;1.00;;;;;5.02;77.70;100537.41;5096490;28;8848;-58
2023/10/16 05:06:04;;;;;;;;;3.60;3.60;;;;;4.98;78.26;100530.56;5096798;28;8830;-57
2023/10/16 05:08:35;;;;;;;;;3.80;3.80;;;;;4.97;78.68;100526.22;5096211;28;8910;-57
2023/10/16 05:13:56;;;;;;;;;3.00;1.00;;;;;4.93;78.38;100520.22;5096441;28;8830;-58
2023/10/16 05:16:32;;;;;;;;;1.00;1.00;;;;;4.93;78.58;100511.47;5096533;28;8822;-58
2023/10/16 05:19:04;;;;;;;;;1.00;1.00;;;;;4.92;78.66;100515.00;5095735;28;8957;-58
2023/10/16 05:22:02;;;;;;;;;4.40;3.00;;;;;4.88;78.56;100514.31;5095679;28;8813;-57
2023/10/16 06:14:12;;;;;;;;;1.80;1.80;;;;;4.42;78.74;100542.91;5092541;28;8865;-55
2023/10/16 06:16:40;;;;;;;;;3.00;1.40;;;;;4.45;78.84;100537.47;5092573;28;8988;-58
2023/10/16 06:19:14;;;;;;;;;1.00;1.00;;;;;4.49;78.73;100539.06;5092730;28;8911;-57
2023/10/16 06:21:46;;;;;;;;;5.60;4.80;;;;;4.54;79.31;100547.59;5093099;28;8834;-56
2023/10/16 06:24:28;;;;;;;;;4.00;3.20;;;;;4.58;78.47;100539.47;5094234;28;8842;-58
2023/10/16 06:26:56;;;;;;;;;3.00;3.00;;;;;4.65;78.53;100532.16;5092873;28;8838;-56
2023/10/16 06:29:34;;;;;;;;;1.00;1.00;;;;;4.73;78.64;100543.19;5093590;28;8847;-57
2023/10/16 06:32:06;;;;;;;;;2.20;1.40;;;;;4.80;78.68;100542.00;5093691;28;9237;-58
2023/10/16 06:34:37;;;;;;;;;3.00;2.20;;;;;4.92;77.96;100546.66;5094697;28;8838;-57
2023/10/16 06:37:06;;;;;;;;;3.60;3.00;;;;;5.03;77.62;100539.13;5094287;28;8838;-57
2023/10/16 06:39:36;;;;;;;;;3.20;3.20;;;;;5.15;77.91;100547.31;5094269;28;8833;-56
2023/10/16 06:42:04;;;;;;;;;3.80;3.40;;;;;5.28;77.25;100545.78;5094937;28;8967;-58
2023/10/16 06:44:34;;;;;;;;;3.00;3.00;;;;;5.40;77.13;100539.06;5094633;28;8911;-57
2023/10/16 06:47:02;;;;;;;;;3.80;3.80;;;;;5.52;77.03;100547.22;5094181;28;8830;-56
2023/10/16 06:49:35;;;;;;;;;4.40;4.00;;;;;5.64;76.47;100538.72;5094523;28;8830;-56
2023/10/16 06:52:04;;;;;;;;;4.00;3.00;;;;;5.76;76.45;100545.16;5094749;28;8822;-58
2023/10/16 06:54:32;;;;;;;;;3.00;1.00;;;;;5.88;76.12;100547.19;5095047;28;8830;-58
2023/10/16 06:57:04;;;;;;;;;6.00;6.00;;;;;5.99;75.67;100547.53;5095039;28;8838;-58
2023/10/16 06:59:32;;;;;;;;;3.80;3.80;;;;;6.14;75.94;100549.38;5094234;28;8936;-57
2023/10/16 07:02:00;;;;;;;;;3.00;3.00;;;;;6.25;75.37;100539.94;5093341;28;8826;-58
2023/10/16 07:04:29;;;;;;;;;5.40;4.40;;;;;6.34;75.09;100536.81;5092997;28;8932;-58
2023/10/16 07:06:57;;;;;;;;;3.40;3.40;;;;;6.38;74.90;100532.22;5093736;28;9520;-55
2023/10/16 07:09:35;;;;;;;;;4.40;4.00;;;;;6.39;75.19;100537.44;5092951;28;8842;-57
2023/10/16 07:12:04;;;;;;;;;0.00;0.00;;;;;6.40;75.36;100531.19;5093770;28;8822;-57
2023/10/16 07:14:31;;;;;;;;;3.60;2.60;;;;;6.42;75.78;100531.09;5094004;28;8976;-56
2023/10/16 07:17:00;;;;;;;;;5.20;4.00;;;;;6.48;75.73;100544.88;5093784;28;8898;-58
2023/10/16 07:19:27;;;;;;;;;4.40;4.00;;;;;6.54;75.66;100544.50;5093835;28;8829;-58
2023/10/16 07:21:56;;;;;;;;;4.00;3.60;;;;;6.65;75.22;100551.88;5092519;28;8838;-56
2023/10/16 07:24:24;;;;;;;;;6.40;6.40;;;;;6.69;75.08;100548.16;5092951;28;8834;-58
2023/10/16 07:26:52;;;;;;;;;5.20;4.00;;;;;6.72;75.02;100542.66;5092407;28;8838;-58
2023/10/16 07:29:21;;;;;;;;;2.60;2.20;;;;;6.74;75.18;100546.94;5093135;28;8853;-57
2023/10/16 07:31:54;;;;;;;;;9.00;6.00;;;;;6.80;75.11;100545.75;5092838;28;8915;-56
2023/10/16 07:34:24;;;;;;;;;6.00;5.80;;;;;6.89;75.13;100546.13;5093623;28;8818;-56
2023/10/16 07:36:55;;;;;;;;;3.00;3.00;;;;;7.01;74.71;100547.22;5093245;28;8922;-57
2023/10/16 07:39:23;;;;;;;;;6.00;5.60;;;;;7.10;74.62;100547.56;5092860;28;8898;-58
2023/10/16 07:41:52;;;;;;;;;4.00;3.00;;;;;7.19;74.48;100552.34;5093315;28;8833;-56
2023/10/16 07:44:22;;;;;;;;;2.20;1.40;;;;;7.24;74.59;100541.50;5092575;28;8866;-57
2023/10/16 07:46:50;;;;;;;;;1.00;0.40;;;;;7.29;74.26;100539.47;5093735;28;8821;-57
2023/10/16 07:49:25;;;;;;;;;4.00;4.00;;;;;7.35;74.28;100544.41;5094356;28;8834;-58
2023/10/16 07:51:55;;;;;;;;;2.20;2.20;;;;;7.41;74.23;100536.09;5093934;28;8837;-58
2023/10/16 07:54:23;;;;;;;;;6.20;6.20;;;;;7.51;73.93;100542.59;5094697;28;8833;-57
2023/10/16 07:56:51;;;;;;;;;3.60;3.60;;;;;7.56;74.04;100533.44;5093762;28;8814;-58
2023/10/16 07:59:22;;;;;;;;;6.00;6.00;;;;;7.66;74.14;100537.25;5093792;28;8972;-58
2023/10/16 08:01:54;;;;;;;;;4.40;4.40;;;;;7.75;73.58;100537.56;5094093;28;8874;-58
2023/10/16 08:04:35;;;;;;;;;5.20;5.20;;;;;7.81;74.14;100537.22;5094155;28;8842;-58
2023/10/16 08:07:10;;;;;;;;;4.40;4.40;;;;;7.87;73.70;100543.94;5093317;28;8830;-56
2023/10/16 08:10:28;;;;;;;;;4.00;3.60;;;;;7.92;73.57;100541.88;5092768;28;8834;-57
2023/10/16 08:12:47;;;;;;;;;9.20;7.00;;;;;7.99;74.08;100538.75;5092229;28;8848;-57
2023/10/16 08:15:21;;;;;;;;;4.00;4.00;;;;;8.05;73.56;100538.41;5092494;28;8984;-56
2023/10/16 08:17:49;;;;;;;;;7.40;6.60;;;;;8.15;73.53;100544.84;5093037;28;8846;-57
2023/10/16 08:20:20;;;;;;;;;6.80;4.80;;;;;8.26;73.37;100545.09;5093291;28;8826;-58
2023/10/16 08:22:48;;;;;;;;;6.00;6.00;;;;;8.35;73.16;100549.00;5092656;28;9169;-56
2023/10/16 08:30:51;;;;;;;;;3.25;3.00;;;;;8.63;72.72;100539.25;5091869;28;8838;-58
2023/10/16 08:33:19;;;;;;;;;1.00;0.25;;;;;8.71;72.84;100547.59;5091991;28;8848;-58
2023/10/16 08:35:47;;;;;;;;;3.00;3.00;;;;;8.82;72.54;100547.75;5092102;28;8837;-56
2023/10/16 08:38:20;;;;;;;;;3.75;2.75;;;;;8.94;72.58;100544.34;5092755;28;8856;-56
2023/10/16 08:40:57;;;;;;;;;2.50;2.50;;;;;9.06;72.33;100540.06;5092907;28;8830;-58
2023/10/16 08:43:39;;;;;;;;;3.00;3.00;;;;;9.16;72.04;100538.50;5092856;28;8833;-57
2023/10/16 08:46:18;;;;;;;;;3.00;2.00;;;;;9.23;72.25;100540.69;5093011;28;8912;-56
2023/10/16 08:48:48;;;;;;;;;0.50;0.00;;;;;9.33;71.87;100531.16;5092107;28;8842;-57
2023/10/16 08:51:17;;;;;;;;;5.50;5.50;;;;;9.40;71.79;100539.56;5092390;28;8930;-58
2023/10/16 08:53:45;;;;;;;;;9.00;7.50;;;;;9.48;72.01;100545.25;5092023;28;8822;-56
2023/10/16 08:56:17;;;;;;;;;4.00;3.00;;;;;9.57;71.68;100539.34;5091563;28;8908;-57
2023/10/16 08:58:46;;;;;;;;;6.25;3.25;;;;;9.66;71.55;100534.22;5091763;28;9223;-58
2023/10/16 09:01:16;;;;;;;;;7.25;6.75;;;;;9.75;71.14;100540.75;5091945;28;8850;-57
2023/10/16 09:03:46;;;;;;;;;12.00;10.50;;;;;9.79;70.99;100532.47;5092171;28;8850;-59
2023/10/16 09:06:14;;;;;;;;;3.00;3.00;;;;;9.80;71.29;100534.16;5091193;28;8826;-58
2023/10/16 09:08:45;;;;;;;;;4.00;3.25;;;;;9.81;71.42;100533.22;5092159;28;8838;-57
2023/10/16 09:11:16;;;;;;;;;4.00;4.00;;;;;9.89;71.25;100532.72;5094389;28;9533;-58
2023/10/16 09:13:49;;;;;;;;;4.00;3.25;;;;;9.98;71.04;100537.41;5095294;28;8826;-59
2023/10/16 09:16:21;;;;;;;;;3.00;3.00;;;;;10.08;71.17;100535.88;5095042;28;8858;-58
2023/10/16 09:18:49;;;;;;;;;1.67;1.67;;;;;10.17;70.61;100533.41;5095569;28;8903;-56
2023/10/16 09:21:27;;;;;;;;;3.00;3.00;;;;;10.27;71.17;100534.50;5095779;28;8980;-59
2023/10/16 09:23:58;;;;;;;;;3.00;3.00;;;;;10.38;70.28;100537.28;5096481;28;8838;-57
2023/10/16 09:26:32;;;;;;;;;0.50;0.50;;;;;10.45;70.39;100540.34;5096474;28;8849;-57
2023/10/16 09:29:13;;;;;;;;;3.00;3.00;;;;;10.51;70.62;100534.59;5095325;28;8838;-58
2023/10/16 09:31:41;;;;;;;;;1.50;1.00;;;;;10.64;70.25;100531.00;5096233;28;8912;-57
2023/10/16 09:34:10;;;;;;;;;1.00;1.00;;;;;10.76;70.08;100532.78;5087346;28;8852;-58
2023/10/16 09:36:46;;;;;;;;;1.50;1.50;;;;;10.90;69.95;100529.97;5096285;28;9604;-56
2023/10/16 09:39:30;;;;;;;;;1.00;1.00;;;;;11.03;69.40;100530.81;5095547;28;8826;-57
2023/10/16 09:41:59;;;;;;;;;1.50;1.50;;;;;11.24;69.21;100523.06;5095643;28;8841;-58
2023/10/16 09:44:36;;;;;;;;;1.00;1.00;;;;;11.36;69.04;100517.69;5096357;28;9565;-58
2023/10/16 09:47:25;;;;;;;;;2.25;2.00;;;;;11.51;68.59;100521.03;5095719;28;8833;-57
2023/10/16 09:49:53;;;;;;;;;3.50;3.50;;;;;11.62;68.61;100532.66;5095488;28;8828;-57
2023/10/16 09:52:21;;;;;;;;;1.00;1.00;;;;;11.73;68.74;100530.03;5095630;28;8830;-57
2023/10/16 09:54:49;;;;;;;;;3.00;1.00;;;;;11.85;68.43;100522.91;5096097;28;8884;-57
2023/10/16 09:57:17;;;;;;;;;2.00;2.00;;;;;12.01;68.41;100522.47;5096164;28;8838;-59
2023/10/16 09:59:46;;;;;;;;;1.50;1.00;;;;;12.25;67.75;100520.59;5095572;28;8830;-57
2023/10/16 10:02:25;;;;;;;;;0.75;0.75;;;;;12.43;67.43;100513.84;5094943;28;9660;-58
2023/10/16 10:04:55;;;;;;;;;1.00;1.00;;;;;12.61;67.15;100515.06;5093353;28;8834;-56
2023/10/16 10:07:34;;;;;;;;;0.50;0.50;;;;;12.81;67.10;100509.00;5094753;28;8854;-58
2023/10/16 10:11:04;;;;;;;;;3.00;2.50;;;;;13.19;66.97;100504.13;5094454;28;8895;-58
2023/10/16 10:12:53;;;;;;;;;2.50;2.50;;;;;13.66;66.10;100492.19;5095335;28;8830;-57
2023/10/16 10:15:22;;;;;;;;;3.00;3.00;;;;;13.98;65.85;100499.19;5094899;28;8838;-59
2023/10/16 10:17:52;;;;;;;;;3.00;3.00;;;;;14.09;66.05;100495.59;5094044;28;8822;-57
2023/10/16 10:20:25;;;;;;;;;1.50;1.50;;;;;14.07;65.53;100506.47;5092596;28;8852;-60
2023/10/16 10:22:55;;;;;;;;;3.00;3.00;;;;;14.10;65.66;100502.63;5093356;28;8838;-57
2023/10/16 10:25:24;;;;;;;;;3.00;3.00;;;;;14.11;65.82;100507.88;5094205;28;8898;-56
2023/10/16 10:27:52;;;;;;;;;0.00;0.00;;;;;14.21;65.91;100499.94;5093753;28;8837;-59
2023/10/16 10:30:25;;;;;;;;;3.00;3.00;;;;;14.37;66.01;100494.97;5094263;28;8854;-59
2023/10/16 10:32:55;;;;;;;;;1.50;1.50;;;;;14.69;65.47;100493.88;5094455;28;8838;-58
2023/10/16 10:35:26;;;;;;;;;1.00;0.50;;;;;15.15;64.58;100493.31;5095038;28;8846;-57
2023/10/16 10:38:07;;;;;;;;;3.00;3.00;;;;;15.59;63.52;100490.16;5095371;28;8821;-56
2023/10/16 10:40:36;;;;;;;;;2.50;2.00;;;;;15.96;62.94;100496.53;5095122;28;8837;-59
2023/10/16 10:43:04;;;;;;;;;3.25;3.25;;;;;16.10;62.65;100493.41;5095234;28;8866;-59
2023/10/16 10:45:35;;;;;;;;;5.00;4.50;;;;;16.14;62.47;100484.09;5094312;28;8858;-58
2023/10/16 10:48:04;;;;;;;;;1.00;1.00;;;;;16.17;62.39;100485.47;5094029;28;8836;-59
2023/10/16 10:50:32;;;;;;;;;6.00;3.60;;;;;16.23;62.79;100482.22;5094810;28;8830;-58
2023/10/16 10:53:03;;;;;;;;;3.50;3.25;;;;;16.05;63.20;100476.84;5094035;28;8926;-59
2023/10/16 10:55:31;;;;;;;;;5.00;5.00;;;;;15.70;63.92;100479.31;5093814;28;9534;-59
2023/10/16 10:58:02;;;;;;;;;3.80;3.00;;;;;15.34;65.00;100470.09;5093325;28;8956;-58
2023/10/16 11:00:45;;;;;;;;;3.50;3.50;;;;;15.14;65.56;100476.38;5092644;28;8829;-60
2023/10/16 11:03:31;;;;;;;;;3.25;3.25;;;;;15.01;65.17;100464.22;5093104;28;8837;-57
2023/10/16 11:05:59;;;;;;;;;4.00;3.25;;;;;14.97;65.78;100468.13;5092549;28;8877;-59
2023/10/16 11:08:29;;;;;;;;;3.00;3.00;;;;;14.96;66.04;100464.59;5092297;28;8853;-57
2023/10/16 11:10:57;;;;;;;;;6.50;6.00;;;;;14.93;65.62;100464.88;5091855;28;8846;-59
2023/10/16 11:13:26;;;;;;;;;6.00;5.50;;;;;14.91;66.09;100455.25;5091556;28;8818;-59
2023/10/16 11:15:54;;;;;;;;;7.00;6.25;;;;;14.75;65.98;100452.25;5091989;28;8838;-58
2023/10/16 11:18:26;;;;;;;;;5.00;4.00;;;;;14.81;66.01;100454.41;5092686;28;8846;-60
2023/10/16 11:20:54;;;;;;;;;4.50;4.50;;;;;15.00;65.74;100451.75;5093203;28;8918;-58
2023/10/16 11:23:25;;;;;;;;;3.25;1.00;;;;;15.28;65.36;100453.66;5093091;28;8946;-59
2023/10/16 11:25:53;;;;;;;;;3.75;3.75;;;;;15.40;65.02;100450.72;5092769;28;8834;-59
2023/10/16 11:28:21;;;;;;;;;4.75;4.75;;;;;15.38;65.16;100451.84;5093061;28;8922;-58
2023/10/16 11:30:53;;;;;;;;;4.00;3.25;;;;;15.22;65.38;100446.16;5092589;28;8834;-59
2023/10/16 11:33:22;;;;;;;;;5.00;4.00;;;;;15.13;65.75;100441.63;5093029;28;8821;-59
2023/10/16 11:35:50;;;;;;;;;6.00;4.00;;;;;15.24;65.69;100446.88;5093654;28;8826;-58
2023/10/16 11:38:28;;;;;;;;;3.50;3.50;;;;;15.34;65.63;100439.72;5093286;28;8829;-59
2023/10/16 11:40:56;;;;;;;;;0.60;0.00;;;;;15.36;64.47;100437.72;5093735;28;8910;-59
2023/10/16 11:43:24;;;;;;;;;3.50;3.50;;;;;15.38;65.31;100435.75;5092521;28;8936;-58
2023/10/16 11:45:56;;;;;;;;;2.50;2.50;;;;;15.61;64.97;100434.50;5092497;28;8850;-59
2023/10/16 11:48:42;;;;;;;;;2.20;1.40;;;;;15.98;63.95;100430.91;5088959;28;8861;-59
2023/10/16 11:51:10;;;;;;;;;1.00;1.00;;;;;16.48;62.52;100425.16;5088137;28;8834;-57
2023/10/16 11:53:39;;;;;;;;;4.40;3.40;;;;;17.01;62.07;100422.63;5071283;28;8842;-57
2023/10/16 11:56:08;;;;;;;;;3.00;2.20;;;;;17.48;60.99;100410.69;5089730;28;8915;-59
2023/10/16 11:58:36;;;;;;;;;1.00;1.00;;;;;17.87;60.25;100407.50;5090544;28;9512;-58
2023/10/16 12:01:11;;;;;;;;;2.20;2.20;;;;;18.23;59.78;100414.47;5090164;28;8856;-59
2023/10/16 12:04:00;;;;;;;;;1.00;1.00;;;;;18.56;58.93;100407.44;5091465;28;8893;-57
2023/10/16 12:06:28;;;;;;;;;3.00;3.00;;;;;18.78;58.69;100405.03;5091365;28;8846;-58
2023/10/16 12:08:57;;;;;;;;;1.00;1.00;;;;;18.97;58.84;100410.16;5091245;28;8846;-57
2023/10/16 12:11:26;;;;;;;;;3.00;3.00;;;;;18.94;59.06;100396.13;5091202;28;8821;-60
2023/10/16 12:13:54;;;;;;;;;1.00;1.00;;;;;18.52;59.98;100392.59;5090713;28;9267;-58
2023/10/16 12:16:24;;;;;;;;;3.00;3.00;;;;;17.81;61.55;100408.13;5091289;28;8838;-57
2023/10/16 12:19:05;;;;;;;;;0.80;0.80;;;;;17.27;62.60;100410.09;5092297;28;8834;-59
2023/10/16 12:21:33;;;;;;;;;2.20;2.20;;;;;16.82;63.63;100410.13;5091028;28;8846;-59
2023/10/16 12:24:01;;;;;;;;;0.00;0.00;;;;;16.48;64.36;100414.38;5090915;28;8826;-59
2023/10/16 12:26:29;;;;;;;;;3.00;3.00;;;;;16.28;64.63;100419.97;5091003;28;8838;-59
2023/10/16 12:28:59;;;;;;;;;0.00;0.00;;;;;16.54;64.22;100421.00;5089189;28;9779;-58
2023/10/16 12:31:27;;;;;;;;;1.40;1.40;;;;;17.10;62.23;100417.16;5088360;28;8846;-60
2023/10/16 12:33:55;;;;;;;;;0.60;0.60;;;;;17.44;61.80;100404.75;5089761;28;8830;-58
2023/10/16 12:36:25;;;;;;;;;0.00;0.00;;;;;17.37;61.74;100403.69;5090444;28;8815;-57
2023/10/16 12:38:54;;;;;;;;;1.80;1.00;;;;;16.93;62.51;100409.09;5091499;28;8910;-59
2023/10/16 12:41:23;;;;;;;;;1.00;1.00;;;;;16.36;64.15;100412.88;5091655;28;8838;-60
2023/10/16 12:43:51;;;;;;;;;0.80;0.80;;;;;15.84;65.42;100417.09;5093050;28;8826;-57
2023/10/16 12:46:19;;;;;;;;;1.00;0.80;;;;;15.41;65.86;100411.34;5096345;28;8862;-57
2023/10/16 12:48:47;;;;;;;;;1.00;1.00;;;;;15.03;66.76;100405.91;5096755;28;8841;-57
2023/10/16 12:51:15;;;;;;;;;1.00;1.00;;;;;14.76;67.43;100403.00;5095683;28;8900;-59
2023/10/16 12:53:43;;;;;;;;;0.50;0.00;;;;;14.52;68.26;100405.19;5094923;28;8872;-57
2023/10/16 12:56:12;;;;;;;;;1.00;1.00;;;;;14.30;68.35;100405.38;5095791;28;8826;-57
2023/10/16 12:58:40;;;;;;;;;0.00;0.00;;;;;14.10;68.40;100406.22;5096046;28;8829;-58
2023/10/16 13:01:12;;;;;;;;;0.00;0.00;;;;;13.93;68.47;100399.66;5095827;28;8834;-58
2023/10/16 13:03:46;;;;;;;;;0.75;0.75;;;;;13.81;68.73;100402.56;5095900;28;8833;-57
2023/10/16 13:06:14;;;;;;;;;2.00;1.00;;;;;13.67;69.22;100401.03;5095828;28;8830;-57
2023/10/16 13:08:42;;;;;;;;;2.00;2.00;;;;;13.55;69.31;100396.72;5095460;28;8848;-59
2023/10/16 13:11:10;;;;;;;;;3.75;3.75;;;;;13.45;69.35;100403.00;5095496;28;8822;-58